Time;durP1;ratioP1;P1;durP2;ratioP2;P2;SDS_P1;SDS_P2;PMS_P1;PMS_P2;Temp;Humidity;BMP_temperature;BMP_pressure;BME280_temperature;BME280_humidity;BME280_pressure;Samples;Min_cycle;Max_cycle;Signal;HPM_P1;HPM_P2
2023/11/09 00:01:16;;;;;;;4.18;2.83;;;;;;;11.09;100.00;100660.75;5051860;28;20017;-72
2023/11/09 00:03:42;;;;;;;4.13;2.40;;;;;;;10.37;100.00;100552.97;5053549;28;20021;-73
2023/11/09 00:06:07;;;;;;;5.82;3.00;;;;;;;10.78;100.00;100638.00;5055748;28;20056;-76
2023/11/09 00:08:33;;;;;;;5.80;3.20;;;;;;;11.06;100.00;100708.81;5053124;28;20112;-72
2023/11/09 00:10:59;;;;;;;4.28;2.75;;;;;;;10.84;100.00;100711.44;5056980;28;20536;-73
2023/11/09 00:13:26;;;;;;;6.82;3.45;;;;;;;10.69;100.00;100697.91;5057395;28;20445;-74
2023/11/09 00:15:52;;;;;;;4.18;2.97;;;;;;;10.67;100.00;100709.91;5055656;28;20490;-71
2023/11/09 00:18:23;;;;;;;5.80;2.85;;;;;;;9.94;100.00;100601.09;5040229;28;20036;-71
2023/11/09 00:20:50;;;;;;;5.10;3.55;;;;;;;10.47;100.00;100688.44;5058623;28;20021;-76
2023/11/09 00:23:16;;;;;;;5.18;3.55;;;;;;;10.42;100.00;100671.84;5035573;28;20090;-74
2023/11/09 00:25:42;;;;;;;5.70;3.30;;;;;;;10.47;100.00;100684.13;5044876;28;20494;-75
2023/11/09 00:28:27;;;;;;;5.82;3.70;;;;;;;10.44;100.00;100683.13;5013349;28;20057;-76
2023/11/09 00:30:54;;;;;;;5.50;3.55;;;;;;;10.43;100.00;100691.69;5016025;28;20038;-75
2023/11/09 00:33:19;;;;;;;5.30;3.63;;;;;;;10.31;100.00;100663.66;5026090;28;20076;-75
2023/11/09 00:35:46;;;;;;;6.78;3.83;;;;;;;10.50;100.00;100686.88;5027686;28;20033;-75
2023/11/09 00:38:15;;;;;;;5.60;3.88;;;;;;;10.48;100.00;100688.50;5023310;28;20042;-76
2023/11/09 00:40:41;;;;;;;4.68;3.55;;;;;;;10.49;100.00;100694.53;5023181;28;20090;-74
2023/11/09 00:43:07;;;;;;;6.32;4.25;;;;;;;10.57;100.00;100687.13;4985616;28;20156;-73
2023/11/09 00:45:34;;;;;;;5.47;3.50;;;;;;;10.51;100.00;100683.44;5018726;28;20116;-74
2023/11/09 00:48:01;;;;;;;6.07;3.97;;;;;;;10.10;100.00;100615.50;5019521;28;20137;-73
2023/11/09 00:50:26;;;;;;;6.00;3.90;;;;;;;10.55;100.00;100702.50;5023049;28;20518;-74
2023/11/09 00:52:52;;;;;;;6.32;3.92;;;;;;;10.42;100.00;100701.16;5018564;28;20119;-74
2023/11/09 00:55:17;;;;;;;7.60;4.03;;;;;;;10.41;100.00;100694.22;5023373;28;20030;-74
2023/11/09 00:57:43;;;;;;;5.72;3.95;;;;;;;10.49;100.00;100707.44;5022612;28;20036;-75
2023/11/09 01:00:09;;;;;;;7.38;4.50;;;;;;;10.40;100.00;100707.94;5051751;28;20033;-73
2023/11/09 01:02:38;;;;;;;6.57;4.50;;;;;;;10.39;100.00;100700.13;5054411;28;20029;-71
2023/11/09 01:05:07;;;;;;;7.22;4.45;;;;;;;10.21;100.00;100690.78;5054237;28;20159;-71
2023/11/09 01:07:33;;;;;;;6.78;4.82;;;;;;;10.30;100.00;100693.72;5055119;28;20398;-72
2023/11/09 01:09:59;;;;;;;7.68;4.95;;;;;;;10.22;100.00;100704.53;5053840;28;20037;-71
2023/11/09 01:12:26;;;;;;;7.90;5.30;;;;;;;10.20;100.00;100707.06;5056161;28;20604;-73
2023/11/09 01:14:54;;;;;;;6.03;4.18;;;;;;;10.04;100.00;100710.69;5063721;28;20410;-71
2023/11/09 01:17:20;;;;;;;9.73;5.18;;;;;;;10.11;100.00;100715.31;5053082;28;20114;-72
2023/11/09 01:20:06;;;;;;;9.93;4.80;;;;;;;9.94;100.00;100719.72;5052160;28;20130;-73
2023/11/09 01:22:32;;;;;;;8.52;5.40;;;;;;;9.81;100.00;100697.69;5011081;28;20104;-71
2023/11/09 01:24:57;;;;;;;6.93;5.28;;;;;;;9.92;100.00;100713.63;4996760;28;20046;-73
2023/11/09 01:27:23;;;;;;;6.45;4.80;;;;;;;10.08;100.00;100727.19;5015590;28;20045;-70
2023/11/09 01:29:48;;;;;;;6.85;4.70;;;;;;;9.87;100.00;100723.75;5010965;28;20061;-72
2023/11/09 01:32:14;;;;;;;6.10;4.60;;;;;;;9.58;100.00;100683.78;5010137;28;20053;-72
2023/11/09 01:34:39;;;;;;;6.88;4.38;;;;;;;10.00;100.00;100738.03;5011214;28;20064;-71
2023/11/09 01:37:10;;;;;;;8.15;4.82;;;;;;;9.90;100.00;100738.47;5008385;28;20117;-73
2023/11/09 01:39:40;;;;;;;7.45;5.18;;;;;;;9.59;100.00;100715.59;5016743;28;20029;-70
2023/11/09 01:42:05;;;;;;;7.97;5.13;;;;;;;9.68;100.00;100752.09;5015175;28;20121;-71
2023/11/09 01:44:33;;;;;;;7.45;5.35;;;;;;;9.16;100.00;100684.50;5010564;28;20200;-70
2023/11/09 01:46:59;;;;;;;8.38;5.68;;;;;;;9.23;100.00;100717.47;5014741;28;20030;-70
2023/11/09 01:49:25;;;;;;;7.63;5.18;;;;;;;9.31;100.00;100734.94;5012968;28;20091;-71
2023/11/09 01:51:54;;;;;;;8.05;5.55;;;;;;;9.48;100.00;100770.13;5018611;28;20132;-71
2023/11/09 01:54:22;;;;;;;9.35;5.78;;;;;;;9.22;100.00;100719.94;5055047;28;20047;-75
2023/11/09 01:56:48;;;;;;;7.85;5.63;;;;;;;9.45;100.00;100761.38;5050980;28;20056;-72
2023/11/09 01:59:38;;;;;;;9.00;6.18;;;;;;;8.86;100.00;100679.69;5011065;28;20545;-71
2023/11/09 02:02:05;;;;;;;9.02;6.20;;;;;;;9.45;100.00;100774.25;5015227;28;20045;-74
2023/11/09 02:04:30;;;;;;;8.43;6.70;;;;;;;9.41;100.00;100772.31;4963528;28;20042;-71
2023/11/09 02:06:56;;;;;;;11.27;6.82;;;;;;;9.45;100.00;100769.97;5011639;28;20030;-73
2023/11/09 02:09:22;;;;;;;9.57;6.25;;;;;;;9.46;100.00;100776.91;5011626;28;20523;-73
2023/11/09 02:11:48;;;;;;;8.63;6.45;;;;;;;9.49;100.00;100779.59;5016431;28;20026;-72
2023/11/09 02:14:15;;;;;;;10.23;6.85;;;;;;;9.41;100.00;100762.03;5015335;28;20045;-72
2023/11/09 02:16:41;;;;;;;9.90;6.32;;;;;;;9.50;100.00;100788.25;5013422;28;20472;-73
2023/11/09 02:19:07;;;;;;;8.13;6.13;;;;;;;9.39;100.00;100791.22;5011915;28;20182;-72
2023/11/09 02:21:35;;;;;;;8.23;6.45;;;;;;;9.30;100.00;100766.69;5010481;28;20451;-72
2023/11/09 02:24:05;;;;;;;9.60;6.25;;;;;;;9.27;100.00;100763.97;5012695;28;20040;-73
2023/11/09 02:26:31;;;;;;;8.00;6.13;;;;;;;9.34;100.00;100758.28;5013186;28;20545;-74
2023/11/09 02:28:56;;;;;;;8.15;7.00;;;;;;;9.51;100.00;100790.00;5017870;28;20471;-74
2023/11/09 02:31:22;;;;;;;7.75;6.20;;;;;;;9.42;100.00;100798.19;5046805;28;20040;-73
2023/11/09 02:33:47;;;;;;;10.98;7.03;;;;;;;9.13;100.00;100777.06;5051959;28;20062;-73
2023/11/09 02:36:13;;;;;;;9.27;6.43;;;;;;;8.91;100.00;100726.25;5053736;28;20025;-72
2023/11/09 02:38:38;;;;;;;8.68;6.43;;;;;;;9.43;100.00;100801.66;5036273;28;20035;-73
2023/11/09 02:41:06;;;;;;;8.48;5.88;;;;;;;9.42;100.00;100793.03;5052863;28;20021;-73
2023/11/09 02:43:31;;;;;;;11.32;6.38;;;;;;;9.49;100.00;100801.94;4986026;28;20479;-73
2023/11/09 02:45:57;;;;;;;9.23;6.03;;;;;;;9.58;100.00;100814.38;5057912;28;20035;-72
2023/11/09 02:48:24;;;;;;;9.27;6.00;;;;;;;9.59;100.00;100822.16;5053344;28;20036;-72
2023/11/09 02:50:50;;;;;;;8.25;5.75;;;;;;;9.21;100.00;100755.13;5054016;28;20047;-72
2023/11/09 02:53:15;;;;;;;6.95;5.50;;;;;;;9.53;100.00;100816.72;5059000;28;20017;-74
2023/11/09 02:55:41;;;;;;;8.52;6.32;;;;;;;9.49;100.00;100820.84;5057853;28;20110;-72
2023/11/09 02:58:07;;;;;;;8.02;5.72;;;;;;;9.49;100.00;100805.38;5057559;28;20020;-74
2023/11/09 03:00:32;;;;;;;9.38;6.75;;;;;;;9.57;100.00;100838.38;5035578;28;20462;-72
2023/11/09 03:02:58;;;;;;;7.75;6.00;;;;;;;9.66;100.00;100825.94;5051979;28;20138;-72
2023/11/09 03:05:26;;;;;;;7.88;5.43;;;;;;;9.66;100.00;100815.63;5059052;28;20488;-74
2023/11/09 03:07:51;;;;;;;8.23;5.50;;;;;;;9.46;100.00;100799.19;5052943;28;20173;-73
2023/11/09 03:10:17;;;;;;;8.05;5.90;;;;;;;9.34;100.00;100768.59;5054547;28;20064;-72
2023/11/09 03:12:43;;;;;;;12.32;6.60;;;;;;;9.73;100.00;100821.91;5005693;28;20036;-73
2023/11/09 03:15:10;;;;;;;7.55;5.95;;;;;;;9.64;100.00;100812.94;5052167;28;20029;-72
2023/11/09 03:17:44;;;;;;;10.95;6.20;;;;;;;9.70;100.00;100813.22;5044520;28;20051;-74
2023/11/09 03:20:09;;;;;;;7.72;5.65;;;;;;;9.64;100.00;100817.22;5043759;28;20812;-72
2023/11/09 03:22:36;;;;;;;10.60;6.38;;;;;;;9.70;100.00;100822.66;5052833;28;20163;-73
2023/11/09 03:25:04;;;;;;;9.07;6.32;;;;;;;9.75;100.00;100841.81;5051903;28;20020;-73
2023/11/09 03:27:29;;;;;;;10.82;6.55;;;;;;;9.55;100.00;100821.13;5053519;28;20089;-73
2023/11/09 03:29:55;;;;;;;9.63;5.95;;;;;;;9.64;100.00;100846.44;5051421;28;20064;-72
2023/11/09 03:32:20;;;;;;;9.57;6.30;;;;;;;9.60;100.00;100828.22;5049675;28;20047;-73
2023/11/09 03:34:46;;;;;;;9.18;6.15;;;;;;;9.74;100.00;100845.19;5051557;28;20121;-71
2023/11/09 03:37:11;;;;;;;9.85;6.35;;;;;;;9.61;100.00;100825.69;5051785;28;20103;-72
2023/11/09 03:39:37;;;;;;;8.50;6.15;;;;;;;9.75;100.00;100852.13;5053824;28;20048;-72
2023/11/09 03:42:02;;;;;;;9.15;6.60;;;;;;;9.71;100.00;100855.38;5051713;28;20044;-74
2023/11/09 03:44:38;;;;;;;8.43;6.40;;;;;;;9.55;100.00;100852.06;5053283;28;20052;-75
2023/11/09 03:47:04;;;;;;;8.10;6.25;;;;;;;9.16;100.00;100854.50;5061686;28;20039;-73
2023/11/09 03:49:30;;;;;;;8.93;6.32;;;;;;;8.52;100.00;100767.25;5060099;28;20021;-74
2023/11/09 03:51:55;;;;;;;9.68;6.82;;;;;;;8.78;100.00;100793.41;5060106;28;20589;-74
2023/11/09 03:54:21;;;;;;;9.35;6.55;;;;;;;9.19;100.00;100858.91;5062121;28;20036;-73
2023/11/09 03:56:46;;;;;;;11.25;6.60;;;;;;;9.13;100.00;100866.34;5061589;28;20103;-73
2023/11/09 03:59:12;;;;;;;9.63;7.28;;;;;;;8.87;100.00;100845.31;5057388;28;20104;-72
2023/11/09 04:01:37;;;;;;;8.90;6.85;;;;;;;8.57;100.00;100825.88;5060085;28;20025;-74
2023/11/09 04:04:04;;;;;;;10.77;7.60;;;;;;;8.46;100.00;100793.56;5058092;28;20150;-72
2023/11/09 04:06:30;;;;;;;9.40;6.85;;;;;;;9.03;100.00;100883.03;5054936;28;20025;-72
2023/11/09 04:08:55;;;;;;;8.75;6.30;;;;;;;8.96;100.00;100861.25;5055260;28;20372;-76
2023/11/09 04:11:21;;;;;;;10.05;6.57;;;;;;;9.07;100.00;100866.91;5056797;28;20024;-71
2023/11/09 04:13:47;;;;;;;9.48;6.88;;;;;;;8.97;100.00;100869.84;5018884;28;20029;-74
2023/11/09 04:16:12;;;;;;;9.63;6.93;;;;;;;8.81;100.00;100863.03;5057558;28;20405;-74
2023/11/09 04:18:38;;;;;;;17.23;6.90;;;;;;;8.67;100.00;100839.19;5056281;28;20052;-71
2023/11/09 04:21:24;;;;;;;8.98;6.50;;;;;;;8.72;100.00;100860.88;5055060;28;20032;-72
2023/11/09 04:23:49;;;;;;;11.60;8.18;;;;;;;8.55;100.00;100873.78;5015120;28;20041;-71
2023/11/09 04:26:16;;;;;;;9.07;6.90;;;;;;;8.32;100.00;100892.25;5014416;28;20553;-72
2023/11/09 04:28:42;;;;;;;10.57;7.20;;;;;;;8.00;100.00;100829.69;5008991;28;20050;-70
2023/11/09 04:31:10;;;;;;;9.02;6.72;;;;;;;8.26;100.00;100877.38;5012531;28;20049;-74
2023/11/09 04:33:36;;;;;;;10.60;7.18;;;;;;;8.20;100.00;100877.94;5016945;28;20118;-71
2023/11/09 04:36:05;;;;;;;10.65;7.57;;;;;;;8.12;100.00;100884.34;5014201;28;20527;-70
2023/11/09 04:38:37;;;;;;;8.77;6.78;;;;;;;8.12;100.00;100892.06;5019707;28;20164;-72
2023/11/09 04:41:09;;;;;;;9.98;7.50;;;;;;;8.13;100.00;100896.41;4994391;28;20561;-72
2023/11/09 04:43:38;;;;;;;9.95;7.47;;;;;;;8.34;100.00;100916.38;4999790;28;20050;-71
2023/11/09 04:46:10;;;;;;;9.68;7.05;;;;;;;7.64;100.00;100843.25;5017122;28;20037;-74
2023/11/09 04:48:44;;;;;;;9.85;7.15;;;;;;;8.10;100.00;100921.97;5012605;28;20605;-73
2023/11/09 04:51:20;;;;;;;9.77;6.90;;;;;;;8.33;100.00;100932.63;5021489;28;20037;-72
2023/11/09 04:53:48;;;;;;;12.98;7.50;;;;;;;8.47;100.00;100929.09;5020915;28;20037;-71
2023/11/09 04:56:30;;;;;;;17.50;7.20;;;;;;;8.62;100.00;100941.88;5002190;28;20671;-75
2023/11/09 04:59:02;;;;;;;8.10;6.68;;;;;;;8.69;100.00;100950.84;5019378;28;20030;-74
2023/11/09 05:06:58;;;;;;;11.32;7.88;;;;;;;8.38;100.00;100901.16;5065660;28;20031;-71
2023/11/09 05:09:24;;;;;;;12.45;6.50;;;;;;;8.20;100.00;100866.75;5043532;28;20021;-71
2023/11/09 05:11:51;;;;;;;8.50;6.07;;;;;;;8.72;100.00;100957.03;5062367;28;20074;-71
2023/11/09 05:14:17;;;;;;;10.23;6.70;;;;;;;8.82;100.00;100979.00;5063394;28;20020;-71
2023/11/09 05:16:43;;;;;;;13.65;7.97;;;;;;;8.86;100.00;100977.44;5061232;28;20049;-72
2023/11/09 05:19:09;;;;;;;12.60;7.72;;;;;;;8.71;100.00;100952.69;5054920;28;20041;-70
2023/11/09 05:21:35;;;;;;;8.98;7.25;;;;;;;8.89;100.00;100985.34;5062638;28;20405;-72
2023/11/09 05:24:01;;;;;;;8.75;6.50;;;;;;;8.94;100.00;100985.59;5062936;28;20024;-75
2023/11/09 05:26:31;;;;;;;9.13;6.45;;;;;;;8.58;100.00;100929.69;5062316;28;20462;-71
2023/11/09 05:29:04;;;;;;;10.20;6.57;;;;;;;9.00;100.00;101003.94;5060954;28;20029;-72
2023/11/09 05:31:29;;;;;;;11.00;6.43;;;;;;;9.01;100.00;101003.09;5059806;28;20020;-71
2023/11/09 05:33:55;;;;;;;9.80;6.75;;;;;;;9.03;100.00;101007.56;5063069;28;20094;-71
2023/11/09 05:36:21;;;;;;;8.70;5.57;;;;;;;9.07;100.00;101018.88;5056664;28;20443;-72
2023/11/09 05:38:48;;;;;;;7.80;6.40;;;;;;;9.01;100.00;101014.31;5057683;28;20681;-72
2023/11/09 05:41:14;;;;;;;10.88;6.10;;;;;;;8.80;100.00;101020.88;5051769;28;20766;-72
2023/11/09 05:43:40;;;;;;;10.85;6.95;;;;;;;8.71;100.00;101029.00;5051979;28;20378;-71
2023/11/09 05:46:06;;;;;;;9.88;6.72;;;;;;;8.84;100.00;101028.00;5051139;28;20029;-76
2023/11/09 05:48:32;;;;;;;8.27;6.55;;;;;;;8.99;100.00;101039.09;5051564;28;20059;-71
2023/11/09 05:50:57;;;;;;;9.15;6.18;;;;;;;9.11;100.00;101041.44;5051981;28;20086;-73
2023/11/09 05:53:23;;;;;;;13.02;6.18;;;;;;;9.26;100.00;101046.50;5052011;28;20024;-71
2023/11/09 05:55:49;;;;;;;13.60;7.85;;;;;;;9.34;100.00;101052.91;5051595;28;20032;-71
2023/11/09 05:58:16;;;;;;;10.85;7.72;;;;;;;9.14;100.00;101004.63;5051636;28;20025;-72
2023/11/09 06:00:42;;;;;;;9.43;7.00;;;;;;;9.50;100.00;101046.84;5050586;28;20422;-73
2023/11/09 06:03:07;;;;;;;10.48;6.60;;;;;;;9.51;100.00;101015.13;5016031;28;20033;-73
2023/11/09 06:05:32;;;;;;;8.52;6.68;;;;;;;9.53;100.00;101005.78;5051417;28;20043;-74
2023/11/09 06:07:58;;;;;;;8.45;6.63;;;;;;;9.48;100.00;101030.44;5050436;28;20028;-72
2023/11/09 06:10:25;;;;;;;12.65;6.43;;;;;;;9.48;100.00;101026.97;5051263;28;20020;-72
2023/11/09 06:12:50;;;;;;;10.65;6.40;;;;;;;9.66;100.00;101042.47;5051638;28;20079;-72
2023/11/09 06:15:16;;;;;;;10.25;7.50;;;;;;;9.94;100.00;101064.47;5051218;28;20072;-73
2023/11/09 06:17:44;;;;;;;7.68;6.10;;;;;;;10.11;100.00;101070.44;5051336;28;20111;-75
2023/11/09 06:20:12;;;;;;;12.02;6.80;;;;;;;9.92;100.00;101061.81;5051296;28;20067;-71
2023/11/09 06:22:40;;;;;;;7.95;6.13;;;;;;;9.94;100.00;101074.78;5051277;28;20036;-72
2023/11/09 06:25:07;;;;;;;7.97;5.88;;;;;;;10.11;100.00;101076.47;5051201;28;20025;-73
2023/11/09 06:27:33;;;;;;;10.27;5.93;;;;;;;10.37;100.00;101076.91;5032261;28;20033;-71
2023/11/09 06:29:58;;;;;;;7.13;5.43;;;;;;;10.60;100.00;101093.44;5050923;28;20082;-76
2023/11/09 06:32:25;;;;;;;8.40;5.90;;;;;;;10.38;100.00;101021.88;5050779;28;20029;-71
2023/11/09 06:34:51;;;;;;;7.03;4.97;;;;;;;10.40;100.00;101020.25;5038339;28;20036;-75
2023/11/09 06:37:17;;;;;;;6.57;4.95;;;;;;;10.33;100.00;101085.25;5031333;28;20028;-71
2023/11/09 06:39:46;;;;;;;7.93;5.10;;;;;;;10.00;100.00;101085.41;5030775;28;20041;-72
2023/11/09 06:42:12;;;;;;;7.90;5.00;;;;;;;9.39;100.00;100999.03;5031053;28;20547;-71
2023/11/09 06:44:38;;;;;;;8.15;5.43;;;;;;;9.75;100.00;101079.03;5030547;28;20116;-71
2023/11/09 06:47:04;;;;;;;7.85;5.68;;;;;;;9.65;100.00;101067.34;5031039;28;20104;-71
2023/11/09 06:49:29;;;;;;;9.77;5.60;;;;;;;9.88;100.00;101085.66;5045245;28;20162;-72
2023/11/09 06:51:56;;;;;;;9.32;5.95;;;;;;;9.99;100.00;101079.38;5050912;28;20433;-72
2023/11/09 06:54:22;;;;;;;8.98;5.38;;;;;;;9.89;100.00;101066.81;5050713;28;20159;-72
2023/11/09 06:56:48;;;;;;;8.52;5.25;;;;;;;10.07;100.00;101084.91;5050587;28;20070;-72
2023/11/09 06:59:15;;;;;;;6.47;5.00;;;;;;;9.81;100.00;101016.56;5050500;28;20025;-72
2023/11/09 07:01:41;;;;;;;6.38;4.60;;;;;;;10.27;100.00;101098.75;5050330;28;20013;-71
2023/11/09 07:04:07;;;;;;;11.00;5.00;;;;;;;10.31;100.00;101092.94;5050528;28;20021;-71
2023/11/09 07:06:33;;;;;;;7.10;4.80;;;;;;;10.17;100.00;101076.78;5050327;28;20494;-72
2023/11/09 07:08:58;;;;;;;7.43;4.97;;;;;;;10.31;100.00;101092.94;5050364;28;20025;-71
2023/11/09 07:11:23;;;;;;;13.63;4.82;;;;;;;9.95;100.00;101015.53;5014823;28;20060;-72
2023/11/09 07:13:49;;;;;;;7.00;5.38;;;;;;;10.42;100.00;101074.50;5050004;28;20025;-73
2023/11/09 07:16:16;;;;;;;6.80;4.60;;;;;;;10.61;100.00;101084.03;5050091;28;20048;-71
2023/11/09 07:18:41;;;;;;;6.82;4.13;;;;;;;10.98;100.00;101096.94;5050392;28;20035;-72
2023/11/09 07:21:08;;;;;;;5.50;3.83;;;;;;;11.04;100.00;101072.16;5050161;28;20459;-72
2023/11/09 07:23:33;;;;;;;6.70;3.95;;;;;;;11.35;100.00;101089.91;5050292;28;20044;-72
2023/11/09 07:25:59;;;;;;;9.35;4.32;;;;;;;11.11;100.00;101106.09;5050247;28;20417;-73
2023/11/09 07:28:24;;;;;;;6.05;4.35;;;;;;;11.14;100.00;101111.44;5050645;28;20546;-71
2023/11/09 07:31:10;;;;;;;8.80;4.40;;;;;;;11.39;100.00;101103.84;5027418;28;20492;-72
2023/11/09 07:33:35;;;;;;;5.75;4.22;;;;;;;11.40;100.00;101085.84;5027758;28;20224;-71
2023/11/09 07:36:00;;;;;;;10.02;4.18;;;;;;;11.58;100.00;101100.38;5027559;28;20073;-72
2023/11/09 07:38:27;;;;;;;6.78;3.95;;;;;;;11.60;100.00;101109.06;5031513;28;20116;-71
2023/11/09 07:40:52;;;;;;;7.15;3.90;;;;;;;11.67;100.00;101116.28;5035377;28;20507;-73
2023/11/09 07:43:18;;;;;;;7.05;4.45;;;;;;;11.58;100.00;101115.91;5027626;28;20031;-73
2023/11/09 07:45:44;;;;;;;7.72;4.53;;;;;;;11.27;100.00;101044.78;5027185;28;20060;-73
2023/11/09 07:48:09;;;;;;;7.90;4.40;;;;;;;11.53;100.00;101104.50;5027438;28;20025;-74
2023/11/09 07:50:35;;;;;;;6.82;4.20;;;;;;;11.31;100.00;101057.00;5027450;28;20442;-71
2023/11/09 07:53:01;;;;;;;6.95;4.18;;;;;;;11.24;100.00;101024.84;5027266;28;20119;-71
2023/11/09 07:55:29;;;;;;;6.25;3.80;;;;;;;11.89;100.00;101114.63;5027580;28;20129;-72
2023/11/09 07:58:02;;;;;;;7.00;3.67;;;;;;;11.81;100.00;101109.09;5027357;28;20041;-73
2023/11/09 08:00:29;;;;;;;12.00;4.40;;;;;;;12.00;100.00;101113.41;5027500;28;20078;-70
2023/11/09 08:02:54;;;;;;;9.85;4.25;;;;;;;12.03;100.00;101113.50;5044795;28;20052;-69
2023/11/09 08:05:20;;;;;;;13.68;4.63;;;;;;;11.65;100.00;101038.63;5049078;28;20114;-71
2023/11/09 08:07:46;;;;;;;6.97;3.42;;;;;;;11.70;100.00;101043.09;5049124;28;20522;-71
2023/11/09 08:10:12;;;;;;;9.00;4.07;;;;;;;11.93;100.00;101085.47;5049248;28;20025;-70
2023/11/09 08:12:41;;;;;;;11.82;3.53;;;;;;;12.22;100.00;101111.69;5049349;28;20047;-70
2023/11/09 08:15:10;;;;;;;8.05;3.88;;;;;;;12.32;100.00;101108.63;5048986;28;20013;-70
2023/11/09 08:17:39;;;;;;;8.18;4.10;;;;;;;12.58;100.00;101120.03;5049252;28;20120;-71
2023/11/09 08:20:07;;;;;;;;;;;;;;;12.58;100.00;101124.34;5049524;28;20115;-72
2023/11/09 08:22:32;;;;;;;12.63;3.28;;;;;;;12.52;100.00;101119.78;5048781;28;19915;-72
2023/11/09 08:24:59;;;;;;;9.48;2.80;;;;;;;12.53;100.00;101113.78;5031172;28;20033;-71
2023/11/09 08:27:25;;;;;;;6.07;3.40;;;;;;;12.59;100.00;101121.78;5029322;28;20048;-73
2023/11/09 08:29:51;;;;;;;9.13;2.60;;;;;;;12.58;100.00;101119.16;5049201;28;20021;-71
2023/11/09 08:32:18;;;;;;;8.68;3.10;;;;;;;12.79;100.00;101119.97;5053265;28;20067;-71
2023/11/09 08:34:43;;;;;;;4.20;2.42;;;;;;;12.97;100.00;101118.03;5000925;28;20043;-70
2023/11/09 08:37:10;;;;;;;3.58;2.10;;;;;;;13.10;98.99;101117.66;5053237;28;20381;-70
2023/11/09 08:39:37;;;;;;;7.03;2.13;;;;;;;13.28;98.87;101122.63;5051790;28;20025;-70
2023/11/09 08:42:03;;;;;;;5.07;2.30;;;;;;;13.42;99.14;101112.78;5052605;28;20033;-71
2023/11/09 08:44:29;;;;;;;6.10;1.83;;;;;;;13.53;94.84;101123.53;5045478;28;20151;-75
2023/11/09 08:46:54;;;;;;;5.57;1.80;;;;;;;13.53;91.01;101132.22;5047198;28;20016;-71
2023/11/09 08:49:21;;;;;;;4.43;2.10;;;;;;;13.55;95.89;101121.91;5052246;28;20082;-71
2023/11/09 08:51:48;;;;;;;3.58;1.98;;;;;;;13.62;95.16;101121.28;5049041;28;20094;-71
2023/11/09 08:54:16;;;;;;;4.38;1.73;;;;;;;13.77;95.11;101122.63;5052205;28;20017;-74
2023/11/09 08:56:42;;;;;;;3.75;2.10;;;;;;;13.73;92.51;101111.25;5048702;28;20028;-73
2023/11/09 08:59:07;;;;;;;4.22;2.13;;;;;;;13.53;90.83;101071.66;5051874;28;20023;-74
2023/11/09 09:01:33;;;;;;;3.15;2.10;;;;;;;13.87;90.23;101132.53;5051301;28;20020;-74
2023/11/09 09:03:59;;;;;;;3.08;1.95;;;;;;;13.75;89.60;101139.03;5052221;28;20374;-74
2023/11/09 09:06:25;;;;;;;3.00;1.90;;;;;;;13.75;88.29;101136.44;5052073;28;20040;-73
2023/11/09 09:08:52;;;;;;;5.03;2.42;;;;;;;13.89;91.12;101129.16;5051939;28;20520;-74
2023/11/09 09:11:18;;;;;;;3.30;1.80;;;;;;;13.70;89.35;101112.03;5052221;28;20013;-72
2023/11/09 09:13:44;;;;;;;5.03;2.05;;;;;;;13.96;88.00;101131.94;5052286;28;20028;-72
2023/11/09 09:16:12;;;;;;;3.70;1.83;;;;;;;13.53;86.62;101044.03;5052154;28;20080;-72
2023/11/09 09:18:38;;;;;;;3.75;1.85;;;;;;;14.19;85.88;101131.00;5052731;28;20059;-72
2023/11/09 09:21:08;;;;;;;3.70;2.03;;;;;;;14.36;87.65;101121.13;5052324;28;20463;-73
2023/11/09 09:23:34;;;;;;;3.45;2.08;;;;;;;14.26;88.80;101121.69;5051994;28;20155;-74
2023/11/09 09:26:00;;;;;;;3.50;2.33;;;;;;;14.09;87.36;101121.13;5052409;28;20545;-73
2023/11/09 09:28:25;;;;;;;4.75;1.90;;;;;;;14.36;82.59;101125.47;5052354;28;20077;-73
2023/11/09 09:30:51;;;;;;;2.67;1.80;;;;;;;14.33;86.53;101123.66;5051598;28;20057;-73
2023/11/09 09:33:17;;;;;;;3.47;2.25;;;;;;;13.98;84.58;101110.41;5051910;28;20025;-73
2023/11/09 09:35:43;;;;;;;1.77;1.50;;;;;;;14.22;85.79;101110.31;5051712;28;20085;-71
2023/11/09 09:38:08;;;;;;;3.47;1.60;;;;;;;14.29;86.00;101095.78;5049050;28;20045;-73
2023/11/09 09:40:36;;;;;;;3.42;1.63;;;;;;;14.33;86.55;101109.75;5051720;28;20067;-73
2023/11/09 09:43:02;;;;;;;4.05;1.50;;;;;;;14.38;83.85;101103.00;5050986;28;20380;-73
2023/11/09 09:45:32;;;;;;;6.60;1.88;;;;;;;14.56;82.50;101115.69;5051804;28;20036;-73
2023/11/09 09:48:01;;;;;;;3.20;1.73;;;;;;;14.25;85.91;101036.81;5051366;28;20144;-72
2023/11/09 09:50:29;;;;;;;13.18;2.45;;;;;;;14.77;83.22;101102.50;5032877;28;20041;-72
2023/11/09 09:52:57;;;;;;;4.57;1.60;;;;;;;14.91;79.22;101102.91;5051851;28;20032;-73
2023/11/09 09:55:26;;;;;;;3.55;1.52;;;;;;;15.15;81.76;101102.75;5051610;28;20098;-73
2023/11/09 09:57:52;;;;;;;8.00;2.00;;;;;;;14.78;81.93;101101.66;5051721;28;20028;-73
2023/11/09 10:00:23;;;;;;;5.03;2.13;;;;;;;14.29;85.27;101075.00;5051595;28;20804;-72
2023/11/09 10:02:52;;;;;;;4.80;2.00;;;;;;;13.76;84.72;101023.16;5050271;28;20424;-74
2023/11/09 10:05:19;;;;;;;3.80;1.63;;;;;;;14.08;85.58;101090.78;5051456;28;20055;-73
2023/11/09 10:08:07;;;;;;;3.08;1.80;;;;;;;14.19;84.43;101093.75;5051582;28;20082;-73
2023/11/09 10:10:36;;;;;;;3.58;1.85;;;;;;;14.62;84.05;101097.69;5051395;28;20454;-73
2023/11/09 10:13:03;;;;;;;5.17;1.80;;;;;;;14.94;81.45;101090.00;5051183;28;20021;-73
2023/11/09 10:15:30;;;;;;;2.47;1.58;;;;;;;15.12;78.70;101096.56;5051208;28;20274;-73
2023/11/09 10:17:56;;;;;;;5.78;1.92;;;;;;;15.39;81.45;101099.06;5051244;28;20087;-73
2023/11/09 10:20:23;;;;;;;3.63;1.95;;;;;;;15.37;79.54;101044.38;5033515;28;20518;-74
2023/11/09 10:22:50;;;;;;;3.60;1.80;;;;;;;15.79;76.79;101094.03;5051197;28;20426;-74
2023/11/09 10:25:17;;;;;;;2.45;1.70;;;;;;;15.58;73.30;101087.41;5050976;28;20028;-73
2023/11/09 10:27:47;;;;;;;2.67;1.73;;;;;;;15.57;73.10;101083.06;5051182;28;20029;-73
2023/11/09 10:30:16;;;;;;;4.22;1.80;;;;;;;15.57;72.82;101077.84;5050807;28;20060;-74
2023/11/09 10:32:46;;;;;;;4.65;1.52;;;;;;;15.72;72.32;101087.78;5050865;28;20059;-72
2023/11/09 10:35:13;;;;;;;2.97;1.30;;;;;;;15.75;71.95;101067.03;5050708;28;20040;-73
2023/11/09 10:37:43;;;;;;;5.15;2.03;;;;;;;15.80;70.27;101069.75;5050518;28;20023;-71
2023/11/09 10:40:13;;;;;;;4.80;1.50;;;;;;;16.04;73.10;101066.91;5050857;28;20054;-72
2023/11/09 10:42:40;;;;;;;4.20;1.75;;;;;;;15.93;75.25;101027.56;5050280;28;20036;-72
2023/11/09 10:45:10;;;;;;;2.97;1.65;;;;;;;16.18;70.55;101044.66;5047046;28;20056;-71
2023/11/09 10:47:40;;;;;;;3.58;1.83;;;;;;;16.60;71.60;101076.88;5049826;28;20094;-73
2023/11/09 10:50:13;;;;;;;2.45;1.50;;;;;;;16.75;71.43;101072.84;5049667;28;20108;-75
2023/11/09 10:52:43;;;;;;;3.58;1.27;;;;;;;16.87;68.17;101067.00;5049816;28;20155;-74
2023/11/09 10:55:11;;;;;;;2.25;1.40;;;;;;;16.90;71.41;101067.94;5047555;28;20356;-73
2023/11/09 10:57:43;;;;;;;4.20;1.50;;;;;;;17.00;71.05;101073.34;5049863;28;20017;-73
2023/11/09 11:00:25;;;;;;;2.20;1.40;;;;;;;17.13;68.24;101076.28;5049661;28;20035;-74
2023/11/09 11:02:56;;;;;;;3.00;1.50;;;;;;;17.07;69.01;101067.44;5045893;28;20387;-73
2023/11/09 11:05:25;;;;;;;1.95;1.20;;;;;;;16.28;67.13;101066.59;5047921;28;20025;-72
2023/11/09 11:08:06;;;;;;;2.22;1.13;;;;;;;16.21;66.32;101067.28;5046835;28;20320;-74
2023/11/09 11:10:31;;;;;;;2.03;1.20;;;;;;;16.27;71.95;101070.03;5046800;28;20028;-73
2023/11/09 11:13:05;;;;;;;4.57;1.50;;;;;;;16.37;71.88;101050.28;5049489;28;20383;-73
2023/11/09 11:15:59;;;;;;;2.97;1.30;;;;;;;15.99;69.45;100988.66;5046471;28;20048;-75
2023/11/09 11:19:13;;;;;;;6.85;1.73;;;;;;;15.70;68.98;101058.22;5047413;28;20177;-72
2023/11/09 11:22:08;;;;;;;4.22;1.90;;;;;;;16.01;70.42;101048.59;4952749;28;20265;-74
2023/11/09 11:24:58;;;;;;;3.15;1.23;;;;;;;15.98;69.41;101045.94;4975252;28;20038;-70
2023/11/09 11:27:43;;;;;;;1.80;1.00;;;;;;;15.83;68.94;101057.72;4971887;28;20497;-73
2023/11/09 11:30:37;;;;;;;7.00;1.23;;;;;;;16.13;69.51;101055.81;4968160;28;20443;-72